createdAt,value
2022-10-31T00:01:13.966Z,96394.03
2022-10-31T00:03:42.904Z,96389.94
2022-10-31T00:06:10.399Z,96381.50
2022-10-31T00:08:38.058Z,96374.50
2022-10-31T00:11:05.822Z,96384.28
2022-10-31T00:13:33.243Z,96385.94
2022-10-31T00:16:00.708Z,96369.28
2022-10-31T00:18:28.209Z,96404.28
2022-10-31T00:21:02.236Z,96401.38
2022-10-31T00:23:29.682Z,96409.66
2022-10-31T00:26:02.742Z,96407.69
2022-10-31T00:28:31.202Z,96373.56
2022-10-31T00:31:00.688Z,96392.19
2022-10-31T00:33:28.131Z,96389.66
2022-10-31T00:35:55.842Z,96383.63
2022-10-31T00:38:24.914Z,96373.53
2022-10-31T00:40:52.420Z,96371.09
2022-10-31T00:43:19.971Z,96370.47
2022-10-31T00:45:47.550Z,96364.50
2022-10-31T00:48:15.019Z,96351.69
2022-10-31T00:50:43.885Z,96365.97
2022-10-31T00:53:11.367Z,96343.81
2022-10-31T00:55:40.193Z,96351.97
2022-10-31T00:58:07.696Z,96361.38
2022-10-31T01:00:35.309Z,96347.53
2022-10-31T01:03:02.905Z,96359.16
2022-10-31T01:05:30.574Z,96367.78
2022-10-31T01:07:58.045Z,96361.69
2022-10-31T01:10:25.509Z,96352.28
2022-10-31T01:12:54.267Z,96364.25
2022-10-31T01:15:24.049Z,96362.34
2022-10-31T01:17:51.611Z,96356.81
2022-10-31T01:20:19.878Z,96359.97
2022-10-31T01:22:47.434Z,96341.47
2022-10-31T01:25:14.979Z,96343.94
2022-10-31T01:27:42.418Z,96340.06
2022-10-31T01:30:12.483Z,96325.63
2022-10-31T01:32:39.928Z,96345.34
2022-10-31T01:35:07.815Z,96345.28
2022-10-31T01:37:35.425Z,96320.25
2022-10-31T01:40:02.933Z,96337.94
2022-10-31T01:42:30.388Z,96330.97
2022-10-31T01:45:01.428Z,96335.88
2022-10-31T01:47:35.675Z,96320.72
2022-10-31T01:50:06.392Z,96332.06
2022-10-31T01:52:38.543Z,96329.16
2022-10-31T01:55:11.326Z,96343.78
2022-10-31T01:57:42.240Z,96336.50
2022-10-31T02:00:11.917Z,96330.41
2022-10-31T02:02:41.006Z,96330.13
2022-10-31T02:05:12.532Z,96326.47
2022-10-31T02:07:45.177Z,96332.53
2022-10-31T02:10:12.810Z,96337.22
2022-10-31T02:12:41.197Z,96341.81
2022-10-31T02:15:10.971Z,96327.25
2022-10-31T02:17:38.525Z,96336.91
2022-10-31T02:20:15.056Z,96335.00
2022-10-31T02:23:00.915Z,96343.06
2022-10-31T02:25:52.924Z,96332.06
2022-10-31T02:28:36.882Z,96341.56
2022-10-31T02:31:20.442Z,96338.16
2022-10-31T02:33:52.708Z,96350.63
2022-10-31T02:36:26.163Z,96337.38
2022-10-31T02:39:01.064Z,96326.94
2022-10-31T02:41:34.834Z,96323.00
2022-10-31T02:44:09.498Z,96311.00
2022-10-31T02:46:45.591Z,96317.63
2022-10-31T02:49:23.525Z,96325.88
2022-10-31T02:51:51.408Z,96321.88
2022-10-31T02:54:24.540Z,96327.63
2022-10-31T02:56:54.213Z,96330.53
2022-10-31T02:59:22.632Z,96339.63
2022-10-31T03:02:03.255Z,96321.22
2022-10-31T03:04:49.842Z,96328.09
2022-10-31T03:07:25.819Z,96330.16
2022-10-31T03:10:02.349Z,96326.19
2022-10-31T03:12:36.162Z,96325.41
2022-10-31T03:15:14.454Z,96323.66
2022-10-31T03:17:52.810Z,96326.59
2022-10-31T03:20:25.555Z,96323.56
2022-10-31T03:22:54.355Z,96321.03
2022-10-31T03:25:21.845Z,96331.44
2022-10-31T03:27:51.242Z,96331.19
2022-10-31T03:30:18.928Z,96325.84
2022-10-31T03:32:52.327Z,96317.41
2022-10-31T03:35:22.897Z,96325.56
2022-10-31T03:37:53.943Z,96321.59
2022-10-31T03:40:23.741Z,96325.53
2022-10-31T03:42:56.886Z,96320.00
2022-10-31T03:45:27.086Z,96315.00
2022-10-31T03:47:58.218Z,96315.34
2022-10-31T03:50:31.010Z,96322.94
2022-10-31T03:53:06.111Z,96314.50
2022-10-31T03:55:40.603Z,96319.53
2022-10-31T03:58:12.587Z,96320.91
2022-10-31T04:00:42.878Z,96321.84
2022-10-31T04:03:16.098Z,96315.59
2022-10-31T04:05:47.761Z,96325.56
2022-10-31T04:08:19.550Z,96323.50
2022-10-31T04:10:50.400Z,96312.34
2022-10-31T04:13:22.497Z,96299.66
2022-10-31T04:15:51.423Z,96314.03
2022-10-31T04:18:20.225Z,96321.91
2022-10-31T04:20:50.812Z,96316.41
2022-10-31T04:23:26.743Z,96312.44
2022-10-31T04:25:54.314Z,96294.69
2022-10-31T04:28:21.902Z,96301.94
2022-10-31T04:30:49.335Z,96304.63
2022-10-31T04:33:16.964Z,96301.56
2022-10-31T04:35:45.962Z,96300.44
2022-10-31T04:38:13.397Z,96304.78
2022-10-31T04:40:40.856Z,96298.00
2022-10-31T04:43:08.407Z,96270.09
2022-10-31T04:45:35.974Z,96271.91
2022-10-31T04:48:03.721Z,96290.19
2022-10-31T04:50:31.446Z,96277.44
2022-10-31T04:53:00.199Z,96291.56
2022-10-31T04:55:27.676Z,96299.03
2022-10-31T04:57:55.126Z,96298.91
2022-10-31T05:00:24.361Z,96287.84
2022-10-31T05:02:53.465Z,96286.13
2022-10-31T05:05:24.518Z,96288.16
2022-10-31T05:07:52.854Z,96293.38
2022-10-31T05:10:23.748Z,96284.06
2022-10-31T05:12:52.824Z,96266.47
2022-10-31T05:15:21.545Z,96292.63
2022-10-31T05:17:49.417Z,96259.44
2022-10-31T05:20:18.860Z,96288.63
2022-10-31T05:22:47.023Z,96288.56
2022-10-31T05:25:14.963Z,96268.34
2022-10-31T05:27:45.202Z,96275.25
2022-10-31T05:30:15.053Z,96274.00
2022-10-31T05:32:43.730Z,96280.22
2022-10-31T05:35:13.190Z,96279.19
2022-10-31T05:37:41.139Z,96279.28
2022-10-31T05:40:11.743Z,96280.50
2022-10-31T05:42:40.752Z,96268.88
2022-10-31T05:45:11.066Z,96266.22
2022-10-31T05:47:38.876Z,96264.50
2022-10-31T05:50:07.676Z,96246.09
2022-10-31T05:52:35.534Z,96265.66
2022-10-31T05:55:02.977Z,96263.38
2022-10-31T05:57:33.077Z,96267.91
2022-10-31T06:00:00.473Z,96266.78
2022-10-31T06:02:33.066Z,96265.19
2022-10-31T06:05:00.518Z,96252.09
2022-10-31T06:07:28.071Z,96272.03
2022-10-31T06:09:55.508Z,96265.16
2022-10-31T06:12:22.905Z,96261.06
2022-10-31T06:14:50.313Z,96256.09
2022-10-31T06:17:17.738Z,96248.19
2022-10-31T06:19:46.534Z,96237.94
2022-10-31T06:22:13.990Z,96233.19
2022-10-31T06:24:41.601Z,96244.16
2022-10-31T06:27:09.103Z,96245.97
2022-10-31T06:29:36.527Z,96249.59
2022-10-31T06:32:04.011Z,96254.41
2022-10-31T06:34:31.454Z,96252.31
2022-10-31T06:37:00.214Z,96254.91
2022-10-31T06:39:27.637Z,96255.91
2022-10-31T06:41:55.040Z,96263.16
2022-10-31T06:44:22.452Z,96261.84
2022-10-31T06:46:49.878Z,96258.97
2022-10-31T06:49:17.442Z,96264.28
2022-10-31T06:51:45.116Z,96262.03
2022-10-31T06:54:13.899Z,96258.88
2022-10-31T06:56:41.353Z,96261.38
2022-10-31T06:59:08.798Z,96272.00
2022-10-31T07:01:36.369Z,96270.59
2022-10-31T07:04:03.993Z,96273.00
2022-10-31T07:06:31.375Z,96288.06
2022-10-31T07:08:58.944Z,96278.09
2022-10-31T07:11:27.720Z,96271.16
2022-10-31T07:13:55.135Z,96277.84
2022-10-31T07:16:22.571Z,96288.59
2022-10-31T07:18:49.978Z,96279.41
2022-10-31T07:21:17.598Z,96286.41
2022-10-31T07:23:44.988Z,96284.38
2022-10-31T07:26:12.467Z,96285.94
2022-10-31T07:28:41.278Z,96283.91
2022-10-31T07:31:08.681Z,96290.81
2022-10-31T07:33:36.099Z,96273.75
2022-10-31T07:36:03.531Z,96289.81
2022-10-31T07:38:30.962Z,96291.97
2022-10-31T07:40:58.379Z,96284.16
2022-10-31T07:43:25.812Z,96282.31
2022-10-31T07:45:55.215Z,96286.88
2022-10-31T07:48:23.075Z,96272.56
2022-10-31T07:50:50.529Z,96296.81
2022-10-31T07:53:18.204Z,96284.03
2022-10-31T07:55:45.730Z,96279.94
2022-10-31T07:58:14.810Z,96280.47
2022-10-31T08:00:44.126Z,96273.44
2022-10-31T08:03:14.661Z,96270.00
2022-10-31T08:05:42.637Z,96271.44
2022-10-31T08:08:10.700Z,96262.38
2022-10-31T08:10:38.416Z,96271.66
2022-10-31T08:13:07.922Z,96261.16
2022-10-31T08:15:38.991Z,96267.06
2022-10-31T08:18:06.854Z,96271.09
2022-10-31T08:20:35.588Z,96270.91
2022-10-31T08:23:05.939Z,96263.47
2022-10-31T08:25:38.423Z,96266.81
2022-10-31T08:28:07.367Z,96267.78
2022-10-31T08:30:37.741Z,96261.81
2022-10-31T08:33:06.990Z,96263.00
2022-10-31T08:35:35.911Z,96260.28
2022-10-31T08:38:04.424Z,96260.69
2022-10-31T08:40:33.879Z,96254.31
2022-10-31T08:43:02.659Z,96259.44
2022-10-31T08:45:31.186Z,96242.97
2022-10-31T08:48:00.234Z,96246.00
2022-10-31T08:50:27.950Z,96255.00
2022-10-31T08:53:05.558Z,96265.78
2022-10-31T08:55:35.292Z,96264.56
2022-10-31T08:58:03.766Z,96250.25
2022-10-31T09:00:31.481Z,96254.28
2022-10-31T09:02:59.597Z,96251.19
2022-10-31T09:05:27.712Z,96246.25
2022-10-31T09:07:59.475Z,96245.50
2022-10-31T09:10:28.318Z,96239.22
2022-10-31T09:12:59.270Z,96237.19
2022-10-31T09:15:27.279Z,96227.50
2022-10-31T09:17:54.997Z,96226.75
2022-10-31T09:20:22.717Z,96239.88
2022-10-31T09:22:59.564Z,96242.78
2022-10-31T09:25:28.082Z,96231.22
2022-10-31T09:27:58.366Z,96221.53
2022-10-31T09:30:26.115Z,96227.56
2022-10-31T09:32:57.013Z,96214.22
2022-10-31T09:35:25.794Z,96202.94
2022-10-31T09:37:56.849Z,96213.94
2022-10-31T09:40:31.641Z,96218.38
2022-10-31T09:43:06.421Z,96212.31
2022-10-31T09:45:41.023Z,96205.19
2022-10-31T09:48:21.170Z,96201.19
2022-10-31T09:50:53.035Z,96204.06
2022-10-31T09:53:28.153Z,96195.34
2022-10-31T09:55:57.212Z,96190.88
2022-10-31T09:58:28.129Z,96189.25
2022-10-31T10:00:58.734Z,96188.91
2022-10-31T10:03:33.430Z,96181.81
2022-10-31T10:06:11.059Z,96187.53
2022-10-31T10:08:39.118Z,96184.84
2022-10-31T10:11:25.220Z,96189.00
2022-10-31T10:14:20.879Z,96183.38
2022-10-31T10:17:08.910Z,96170.00
2022-10-31T10:19:51.988Z,96166.22
2022-10-31T10:22:29.664Z,96168.84
2022-10-31T10:25:11.073Z,96170.16
2022-10-31T10:27:50.617Z,96165.63
2022-10-31T10:30:21.210Z,96165.66
2022-10-31T10:32:53.170Z,96169.16
2022-10-31T10:35:26.705Z,96167.53
2022-10-31T10:38:00.769Z,96169.63
2022-10-31T10:40:30.259Z,96172.88
2022-10-31T10:43:26.218Z,96171.75
2022-10-31T10:46:35.881Z,96162.81
2022-10-31T10:49:14.204Z,96164.28
2022-10-31T10:51:58.182Z,96155.19
2022-10-31T10:54:44.681Z,96158.59
2022-10-31T10:57:24.277Z,96146.28
2022-10-31T10:59:53.329Z,96137.56
2022-10-31T11:02:22.326Z,96138.44
2022-10-31T11:04:53.765Z,96131.22
2022-10-31T11:07:21.311Z,96127.16
2022-10-31T11:09:48.888Z,96122.81
2022-10-31T11:12:24.084Z,96131.97
2022-10-31T11:14:56.750Z,96125.25
2022-10-31T11:17:30.837Z,96121.94
2022-10-31T11:20:08.220Z,96119.34
2022-10-31T11:22:35.667Z,96117.41
2022-10-31T11:25:22.407Z,96107.81
2022-10-31T11:28:00.821Z,96103.97
2022-10-31T11:30:30.740Z,96105.66
2022-10-31T11:32:59.022Z,96088.22
2022-10-31T11:35:27.531Z,96089.91
2022-10-31T11:37:59.748Z,96086.19
2022-10-31T11:40:28.914Z,96076.94
2022-10-31T11:42:59.551Z,96074.66
2022-10-31T11:45:34.781Z,96075.47
2022-10-31T11:48:04.610Z,96080.94
2022-10-31T11:50:38.200Z,96071.47
2022-10-31T11:53:06.162Z,96074.91
2022-10-31T11:55:35.868Z,96061.16
2022-10-31T11:58:04.139Z,96065.13
2022-10-31T12:00:35.674Z,96063.38
2022-10-31T12:03:12.972Z,96051.50
2022-10-31T12:05:43.154Z,96046.53
2022-10-31T12:08:11.954Z,96031.47
2022-10-31T12:10:50.898Z,96027.28
2022-10-31T12:13:31.998Z,96024.88
2022-10-31T12:16:08.236Z,96010.97
2022-10-31T12:18:55.019Z,96000.09
2022-10-31T12:21:35.848Z,96001.34
2022-10-31T12:24:15.932Z,95993.09
2022-10-31T12:26:56.436Z,95985.47
2022-10-31T12:29:38.276Z,95984.91
2022-10-31T12:32:22.178Z,95980.94
2022-10-31T12:35:18.835Z,95974.66
2022-10-31T12:37:58.947Z,95981.25
2022-10-31T12:40:39.030Z,95976.91
2022-10-31T12:43:35.212Z,95961.81
2022-10-31T12:46:06.010Z,95972.53
2022-10-31T12:48:57.477Z,95957.53
2022-10-31T12:51:33.956Z,95954.97
2022-10-31T12:54:20.125Z,95953.91
2022-10-31T12:56:56.771Z,95951.94
2022-10-31T12:59:32.519Z,95950.72
2022-10-31T13:02:06.223Z,95938.50
2022-10-31T13:04:44.236Z,95944.47
2022-10-31T13:07:16.301Z,95932.50
2022-10-31T13:09:49.842Z,95932.91
2022-10-31T13:12:20.818Z,95903.13
2022-10-31T13:14:54.150Z,95911.41
2022-10-31T13:17:28.011Z,95909.53
2022-10-31T13:20:07.322Z,95905.16
2022-10-31T13:22:37.341Z,95904.84
2022-10-31T13:25:12.972Z,95902.22
2022-10-31T13:27:49.290Z,95911.41
2022-10-31T13:30:19.220Z,95888.25
2022-10-31T13:32:50.687Z,95896.84
2022-10-31T13:35:25.688Z,95888.81
2022-10-31T13:38:04.468Z,95880.03
2022-10-31T13:40:39.770Z,95857.44
2022-10-31T13:43:17.930Z,95874.19
2022-10-31T13:45:53.646Z,95866.47
2022-10-31T13:48:36.130Z,95865.09
2022-10-31T13:51:08.380Z,95861.38
2022-10-31T13:53:46.330Z,95850.94
2022-10-31T13:56:19.395Z,95844.69
2022-10-31T13:59:04.151Z,95825.06
2022-10-31T14:01:32.380Z,95846.75
2022-10-31T14:04:14.068Z,95846.44
2022-10-31T14:06:51.668Z,95841.53
2022-10-31T14:09:30.264Z,95842.09
2022-10-31T14:12:01.482Z,95840.09
2022-10-31T14:14:36.025Z,95829.91
2022-10-31T14:17:04.089Z,95834.16
2022-10-31T14:19:31.589Z,95838.75
2022-10-31T14:22:00.430Z,95838.56
2022-10-31T14:24:37.580Z,95838.84
2022-10-31T14:27:27.293Z,95838.63
2022-10-31T14:29:54.862Z,95838.69
2022-10-31T14:32:24.975Z,95817.00
2022-10-31T14:34:57.466Z,95823.34
2022-10-31T14:37:49.589Z,95817.00
2022-10-31T14:40:26.597Z,95815.25
2022-10-31T14:43:20.726Z,95815.91
2022-10-31T14:45:55.453Z,95815.19
2022-10-31T14:48:40.198Z,95810.72
2022-10-31T14:51:14.741Z,95803.47
2022-10-31T14:53:48.155Z,95806.19
2022-10-31T14:56:22.672Z,95812.88
2022-10-31T14:58:50.999Z,95808.97
2022-10-31T15:01:24.141Z,95803.31
2022-10-31T15:04:21.836Z,95804.19
2022-10-31T15:06:44.970Z,95790.19
2022-10-31T15:09:28.264Z,95792.41
2022-10-31T15:11:55.670Z,95793.22
2022-10-31T15:14:26.293Z,95776.25
2022-10-31T15:16:54.230Z,95787.22
2022-10-31T15:19:24.957Z,95790.47
2022-10-31T15:21:54.490Z,95784.06
2022-10-31T15:24:22.312Z,95782.34
2022-10-31T15:26:54.466Z,95773.28
2022-10-31T15:29:23.532Z,95772.13
2022-10-31T15:31:51.785Z,95772.91
2022-10-31T15:34:23.993Z,95782.19
2022-10-31T15:36:51.818Z,95777.13
2022-10-31T15:39:19.887Z,95770.56
2022-10-31T15:41:54.805Z,95743.44
2022-10-31T15:44:25.941Z,95766.75
2022-10-31T15:46:56.037Z,95763.88
2022-10-31T15:49:32.526Z,95764.28
2022-10-31T15:52:07.186Z,95763.44
2022-10-31T15:54:35.089Z,95758.84
2022-10-31T15:57:04.029Z,95754.06
2022-10-31T15:59:32.001Z,95755.19
2022-10-31T16:02:02.902Z,95752.06
2022-10-31T16:04:31.215Z,95749.59
2022-10-31T16:07:03.475Z,95750.38
2022-10-31T16:09:31.111Z,95745.00
2022-10-31T16:12:00.312Z,95751.97
2022-10-31T16:14:32.559Z,95748.72
2022-10-31T16:17:01.589Z,95750.91
2022-10-31T16:19:33.229Z,95738.63
2022-10-31T16:22:06.770Z,95747.34
2022-10-31T16:24:36.822Z,95747.75
2022-10-31T16:27:07.435Z,95749.41
2022-10-31T16:29:41.234Z,95740.53
2022-10-31T16:32:34.645Z,95749.72
2022-10-31T16:35:18.201Z,95747.41
2022-10-31T16:37:46.046Z,95742.31
2022-10-31T16:40:14.759Z,95741.06
2022-10-31T16:42:42.516Z,95751.50
2022-10-31T16:45:19.002Z,95747.06
2022-10-31T16:47:46.820Z,95752.13
2022-10-31T16:50:16.922Z,95761.06
2022-10-31T16:53:08.458Z,95742.19
2022-10-31T16:55:35.813Z,95739.69
2022-10-31T16:58:04.195Z,95749.06
2022-10-31T17:00:32.978Z,95739.69
2022-10-31T17:03:00.415Z,95733.97
2022-10-31T17:05:30.105Z,95734.78
2022-10-31T17:07:57.814Z,95737.41
2022-10-31T17:10:26.078Z,95741.06
2022-10-31T17:12:54.019Z,95743.19
2022-10-31T17:15:24.289Z,95745.59
2022-10-31T17:17:53.843Z,95742.19
2022-10-31T17:20:23.416Z,95743.25
2022-10-31T17:22:50.935Z,95744.06
2022-10-31T17:25:20.230Z,95741.47
2022-10-31T17:27:47.718Z,95736.50
2022-10-31T17:30:18.454Z,95733.38
2022-10-31T17:32:47.454Z,95740.47
2022-10-31T17:35:17.567Z,95747.56
2022-10-31T17:37:46.714Z,95748.91
2022-10-31T17:40:16.516Z,95740.00
2022-10-31T17:42:44.034Z,95739.22
2022-10-31T17:45:13.210Z,95736.91
2022-10-31T17:47:40.653Z,95724.59
2022-10-31T17:50:09.150Z,95724.66
2022-10-31T17:52:37.962Z,95719.97
2022-10-31T17:55:06.010Z,95725.53
2022-10-31T17:57:37.259Z,95722.97
2022-10-31T18:00:06.753Z,95708.06
2022-10-31T18:02:34.627Z,95714.03
2022-10-31T18:05:03.119Z,95717.19
2022-10-31T18:07:30.561Z,95687.16
2022-10-31T18:09:59.390Z,95699.94
2022-10-31T18:12:27.301Z,95704.38
2022-10-31T18:14:55.312Z,95704.66
2022-10-31T18:17:23.014Z,95709.13
2022-10-31T18:19:50.580Z,95704.41
2022-10-31T18:22:18.084Z,95701.25
2022-10-31T18:24:45.498Z,95708.03
2022-10-31T18:27:14.284Z,95699.34
2022-10-31T18:29:41.754Z,95702.94
2022-10-31T18:32:09.756Z,95698.97
2022-10-31T18:34:37.312Z,95704.66
2022-10-31T18:37:04.836Z,95686.06
2022-10-31T18:39:32.359Z,95694.97
2022-10-31T18:41:59.824Z,95688.59
2022-10-31T18:44:28.588Z,95699.09
2022-10-31T18:46:56.044Z,95703.88
2022-10-31T18:49:23.831Z,95713.34
2022-10-31T18:51:51.564Z,95690.63
2022-10-31T18:54:19.319Z,95693.03
2022-10-31T18:56:46.714Z,95706.13
2022-10-31T18:59:14.254Z,95704.59
2022-10-31T19:01:43.093Z,95704.59
2022-10-31T19:04:11.624Z,95685.03
2022-10-31T19:06:39.312Z,95700.34
2022-10-31T19:09:09.435Z,95691.13
2022-10-31T19:11:37.893Z,95698.69
2022-10-31T19:14:08.186Z,95671.25
2022-10-31T19:16:36.377Z,95682.41
2022-10-31T19:19:05.189Z,95687.38
2022-10-31T19:21:32.605Z,95677.97
2022-10-31T19:24:01.305Z,95682.41
2022-10-31T19:26:29.328Z,95690.25
2022-10-31T19:28:57.720Z,95697.63
2022-10-31T19:31:25.606Z,95690.03
2022-10-31T19:33:53.190Z,95696.34
2022-10-31T19:36:22.411Z,95687.78
2022-10-31T19:38:51.560Z,95679.63
2022-10-31T19:41:20.628Z,95680.16
2022-10-31T19:43:48.135Z,95677.56
2022-10-31T19:46:22.651Z,95664.78
2022-10-31T19:49:01.658Z,95673.97
2022-10-31T19:51:30.483Z,95655.91
2022-10-31T19:53:57.914Z,95661.44
2022-10-31T19:56:26.256Z,95645.56
2022-10-31T19:58:53.850Z,95664.34
2022-10-31T20:01:23.512Z,95659.09
2022-10-31T20:03:51.807Z,95645.53
2022-10-31T20:06:23.297Z,95654.13
2022-10-31T20:08:52.557Z,95642.63
2022-10-31T20:11:20.164Z,95655.44
2022-10-31T20:13:47.633Z,95643.13
2022-10-31T20:16:16.923Z,95655.41
2022-10-31T20:18:44.851Z,95644.72
2022-10-31T20:21:14.381Z,95640.50
2022-10-31T20:23:42.116Z,95639.13
2022-10-31T20:26:12.880Z,95642.78
2022-10-31T20:28:43.403Z,95642.22
2022-10-31T20:31:13.038Z,95633.31
2022-10-31T20:33:40.602Z,95639.59
2022-10-31T20:36:09.349Z,95637.50
2022-10-31T20:38:38.845Z,95619.75
2022-10-31T20:41:09.185Z,95630.41
2022-10-31T20:43:38.983Z,95627.81
2022-10-31T20:46:08.510Z,95617.03
2022-10-31T20:48:35.953Z,95619.44
2022-10-31T20:51:05.044Z,95612.13
2022-10-31T20:53:33.356Z,95612.09
2022-10-31T20:56:06.897Z,95603.03
2022-10-31T20:58:35.478Z,95611.88
2022-10-31T21:01:05.340Z,95600.91
2022-10-31T21:03:36.299Z,95612.88
2022-10-31T21:06:05.426Z,95616.53
2022-10-31T21:08:33.806Z,95611.25
2022-10-31T21:11:01.735Z,95585.09
2022-10-31T21:13:29.305Z,95607.03
2022-10-31T21:16:01.310Z,95614.66
2022-10-31T21:18:30.233Z,95605.50
2022-10-31T21:20:57.854Z,95612.81
2022-10-31T21:23:25.309Z,95609.19
2022-10-31T21:25:53.246Z,95605.25
2022-10-31T21:28:20.689Z,95603.44
2022-10-31T21:30:51.455Z,95613.59
2022-10-31T21:33:19.103Z,95619.31
2022-10-31T21:35:51.786Z,95598.69
2022-10-31T21:38:19.638Z,95609.34
2022-10-31T21:40:47.122Z,95598.31
2022-10-31T21:43:14.612Z,95594.63
2022-10-31T21:45:42.037Z,95594.38
2022-10-31T21:48:09.490Z,95586.22
2022-10-31T21:50:36.935Z,95582.25
2022-10-31T21:53:19.640Z,95583.31
2022-10-31T21:55:47.084Z,95582.47
2022-10-31T21:58:14.538Z,95574.63
2022-10-31T22:00:42.006Z,95572.00
2022-10-31T22:03:09.447Z,95577.19
2022-10-31T22:05:36.916Z,95560.97
2022-10-31T22:08:06.223Z,95567.41
2022-10-31T22:10:34.642Z,95575.28
2022-10-31T22:13:02.057Z,95562.19
2022-10-31T22:15:29.462Z,95562.69
2022-10-31T22:17:56.946Z,95564.00
2022-10-31T22:20:29.378Z,95558.53
2022-10-31T22:22:56.950Z,95565.31
2022-10-31T22:25:25.749Z,95563.66
2022-10-31T22:27:53.362Z,95557.81
2022-10-31T22:30:20.802Z,95567.44
2022-10-31T22:32:48.219Z,95570.78
2022-10-31T22:35:15.816Z,95574.44
2022-10-31T22:37:43.277Z,95567.34
2022-10-31T22:40:11.626Z,95570.16
2022-10-31T22:42:40.396Z,95562.28
2022-10-31T22:45:09.004Z,95567.34
2022-10-31T22:47:36.488Z,95560.47
2022-10-31T22:50:04.032Z,95563.91
2022-10-31T22:52:31.583Z,95555.91
2022-10-31T22:54:59.366Z,95558.69
2022-10-31T22:57:26.903Z,95559.53
2022-10-31T22:59:55.689Z,95546.03
2022-10-31T23:02:23.136Z,95566.28
2022-10-31T23:04:50.621Z,95567.22
2022-10-31T23:07:23.035Z,95541.19
2022-10-31T23:09:51.679Z,95558.72
2022-10-31T23:12:36.887Z,95558.16
2022-10-31T23:15:07.041Z,95545.38
2022-10-31T23:17:34.471Z,95557.09
2022-10-31T23:20:01.943Z,95553.97
2022-10-31T23:22:29.427Z,95549.41
2022-10-31T23:24:56.850Z,95541.13
2022-10-31T23:27:24.304Z,95545.09
2022-10-31T23:29:52.996Z,95570.03
2022-10-31T23:32:24.900Z,95552.31
2022-10-31T23:34:54.048Z,95542.25
2022-10-31T23:37:23.392Z,95535.66
2022-10-31T23:39:50.939Z,95528.19
2022-10-31T23:42:18.973Z,95521.88
2022-10-31T23:44:46.929Z,95537.00
2022-10-31T23:47:15.208Z,95534.66
2022-10-31T23:49:44.218Z,95514.31
2022-10-31T23:52:12.828Z,95506.75
2022-10-31T23:54:40.550Z,95507.63
2022-10-31T23:57:08.543Z,95509.25
2022-10-31T23:59:36.662Z,95488.47
